メインページ
METAR-TAF:

METAR-TAF

空港 :

オールバニ, ニューヨーク, アメリカ合衆国

緯度: 42-44-53N, 経度: 073-48-06W, 海抜: 87m

現時点の気象観測

当レポートは48分前の05:51(UTC)に作成
の風 4kt
気温 9°C
湿度 76%
気圧 1014 hPa
視程: 16.1km
高度3800ftの千切れ雲あり
高度6000ftの曇り
小雨

METAR: KALB 040551Z 01004KT 10SM -RA BKN038 OVC060 09/05 A2995 RMK AO2 RAB47 SLP142 P0000 60000 T00890050 10100 20089 51003

時間: 02:39 (06:39 UTC)

予報

当レポートは1時間4分前の05:35(UTC)に作成
予報は04日の 06時(UTC)から 05日の 06時(UTC)まで有効
北/北西の風 4kt
視程: 10km
高度3500ftの雲はほとんどない
高度4500ftの千切れ雲あり
高度8000ftの曇り
04日の 1000時(UTC)から
の風 7kt
視程: 10km
高度3000ftの千切れ雲あり
04日の 1900時(UTC)から
変向風 3kt
視程: 10km
高度3500ftの千切れ雲あり
05日の 0300時(UTC)から
の風 kt
視程: 10km
高度2500ftの千切れ雲あり

TAF: KALB 040535Z 0406/0506 34004KT P6SM FEW035 BKN045 OVC080 FM041000 01007KT P6SM BKN030 FM041900 VRB03KT P6SM BKN035 FM050300 00000KT P6SM BKN025

4,000以上の空港の気象観測と天気予報(METAR報とTAF報)

利用可能な観測所は地図上に黄色い丸と赤い丸で示す。

丸の上にカーソルを重ねると観測所名を参照できる。

次にクリックすると気象観測と天気予報を参照できる。

マップの切り替え:黒色「×」印の緑ボタンをクリックして拡大、「-」印の緑ボタンをクリックして縮小、緑色の三角印をクリックして隣りの地図に切り替え


METAR-TAF: